sensor_id;sensor_type;location;lat;lon;timestamp;temperature;humidity
28969;DHT22;16076;51.194;6.642;2022-11-25T00:02:01;7.80;99.90
28969;DHT22;16076;51.194;6.642;2022-11-25T00:04:27;7.80;99.90
28969;DHT22;16076;51.194;6.642;2022-11-25T00:06:53;7.80;99.90
28969;DHT22;16076;51.194;6.642;2022-11-25T00:09:19;7.90;99.90
28969;DHT22;16076;51.194;6.642;2022-11-25T00:11:44;7.90;99.90
28969;DHT22;16076;51.194;6.642;2022-11-25T00:14:12;7.90;99.90
28969;DHT22;16076;51.194;6.642;2022-11-25T00:16:39;8.00;99.90
28969;DHT22;16076;51.194;6.642;2022-11-25T00:19:04;7.90;99.90
28969;DHT22;16076;51.194;6.642;2022-11-25T00:21:34;7.90;99.90
28969;DHT22;16076;51.194;6.642;2022-11-25T00:24:05;7.90;99.90
28969;DHT22;16076;51.194;6.642;2022-11-25T00:26:35;7.90;99.90
28969;DHT22;16076;51.194;6.642;2022-11-25T00:29:03;7.90;99.90
28969;DHT22;16076;51.194;6.642;2022-11-25T00:31:32;7.80;99.90
28969;DHT22;16076;51.194;6.642;2022-11-25T00:34:01;7.80;99.90
28969;DHT22;16076;51.194;6.642;2022-11-25T00:36:35;7.80;99.90
28969;DHT22;16076;51.194;6.642;2022-11-25T00:39:03;7.90;99.90
28969;DHT22;16076;51.194;6.642;2022-11-25T00:41:31;7.90;99.90
28969;DHT22;16076;51.194;6.642;2022-11-25T00:44:17;7.80;99.90
28969;DHT22;16076;51.194;6.642;2022-11-25T00:47:05;7.80;99.90
28969;DHT22;16076;51.194;6.642;2022-11-25T00:49:33;7.80;99.90
28969;DHT22;16076;51.194;6.642;2022-11-25T00:51:59;7.80;99.90
28969;DHT22;16076;51.194;6.642;2022-11-25T00:54:25;7.80;99.90
28969;DHT22;16076;51.194;6.642;2022-11-25T00:56:51;7.90;99.90
28969;DHT22;16076;51.194;6.642;2022-11-25T00:59:17;7.80;99.90
28969;DHT22;16076;51.194;6.642;2022-11-25T01:01:42;7.80;99.90
28969;DHT22;16076;51.194;6.642;2022-11-25T01:04:08;7.80;99.90
28969;DHT22;16076;51.194;6.642;2022-11-25T01:06:35;7.90;99.90
28969;DHT22;16076;51.194;6.642;2022-11-25T01:09:01;7.90;99.90
28969;DHT22;16076;51.194;6.642;2022-11-25T01:11:27;7.90;99.90
28969;DHT22;16076;51.194;6.642;2022-11-25T01:13:54;8.00;99.90
28969;DHT22;16076;51.194;6.642;2022-11-25T01:16:21;8.20;99.90
28969;DHT22;16076;51.194;6.642;2022-11-25T01:18:47;8.00;99.90
28969;DHT22;16076;51.194;6.642;2022-11-25T01:21:22;8.10;99.90
28969;DHT22;16076;51.194;6.642;2022-11-25T01:23:49;8.20;99.90
28969;DHT22;16076;51.194;6.642;2022-11-25T01:26:20;8.20;99.90
28969;DHT22;16076;51.194;6.642;2022-11-25T01:28:53;8.20;99.90
28969;DHT22;16076;51.194;6.642;2022-11-25T01:31:20;8.30;99.90
28969;DHT22;16076;51.194;6.642;2022-11-25T01:33:52;8.30;99.90
28969;DHT22;16076;51.194;6.642;2022-11-25T01:36:20;8.30;99.90
28969;DHT22;16076;51.194;6.642;2022-11-25T01:38:52;8.30;99.90
28969;DHT22;16076;51.194;6.642;2022-11-25T01:41:19;8.30;99.90
28969;DHT22;16076;51.194;6.642;2022-11-25T01:49:16;8.40;99.90
28969;DHT22;16076;51.194;6.642;2022-11-25T01:52:01;8.50;99.90
28969;DHT22;16076;51.194;6.642;2022-11-25T01:54:36;8.50;99.90
28969;DHT22;16076;51.194;6.642;2022-11-25T01:57:10;8.50;99.90
28969;DHT22;16076;51.194;6.642;2022-11-25T01:59:40;8.60;99.90
28969;DHT22;16076;51.194;6.642;2022-11-25T02:02:09;8.50;99.90
28969;DHT22;16076;51.194;6.642;2022-11-25T02:04:36;8.50;99.90
28969;DHT22;16076;51.194;6.642;2022-11-25T02:07:08;8.50;99.90
28969;DHT22;16076;51.194;6.642;2022-11-25T02:09:37;8.50;99.90
28969;DHT22;16076;51.194;6.642;2022-11-25T02:12:03;8.50;99.90
28969;DHT22;16076;51.194;6.642;2022-11-25T02:14:30;8.50;99.90
28969;DHT22;16076;51.194;6.642;2022-11-25T02:16:59;8.60;99.90
28969;DHT22;16076;51.194;6.642;2022-11-25T02:19:38;8.50;99.90
28969;DHT22;16076;51.194;6.642;2022-11-25T02:22:10;8.50;99.90
28969;DHT22;16076;51.194;6.642;2022-11-25T02:24:43;8.60;99.90
28969;DHT22;16076;51.194;6.642;2022-11-25T02:27:12;8.50;99.90
28969;DHT22;16076;51.194;6.642;2022-11-25T02:29:38;8.50;99.90
28969;DHT22;16076;51.194;6.642;2022-11-25T02:32:04;8.50;99.90
28969;DHT22;16076;51.194;6.642;2022-11-25T02:34:35;8.60;99.90
28969;DHT22;16076;51.194;6.642;2022-11-25T02:37:00;8.70;99.90
28969;DHT22;16076;51.194;6.642;2022-11-25T02:39:27;8.70;99.90
28969;DHT22;16076;51.194;6.642;2022-11-25T02:41:55;8.80;99.90
28969;DHT22;16076;51.194;6.642;2022-11-25T02:44:23;8.80;99.90
28969;DHT22;16076;51.194;6.642;2022-11-25T02:46:51;8.90;99.90
28969;DHT22;16076;51.194;6.642;2022-11-25T02:49:17;8.90;99.90
28969;DHT22;16076;51.194;6.642;2022-11-25T02:51:43;8.90;99.90
28969;DHT22;16076;51.194;6.642;2022-11-25T02:54:11;9.00;99.90
28969;DHT22;16076;51.194;6.642;2022-11-25T02:56:44;9.10;99.90
28969;DHT22;16076;51.194;6.642;2022-11-25T02:59:10;9.20;99.90
28969;DHT22;16076;51.194;6.642;2022-11-25T03:01:36;9.20;99.90
28969;DHT22;16076;51.194;6.642;2022-11-25T03:04:02;9.30;99.90
28969;DHT22;16076;51.194;6.642;2022-11-25T03:06:31;9.30;99.90
28969;DHT22;16076;51.194;6.642;2022-11-25T03:08:57;9.30;99.90
28969;DHT22;16076;51.194;6.642;2022-11-25T03:11:23;9.40;99.90
28969;DHT22;16076;51.194;6.642;2022-11-25T03:14:09;9.40;99.90
28969;DHT22;16076;51.194;6.642;2022-11-25T03:16:34;9.30;99.90
28969;DHT22;16076;51.194;6.642;2022-11-25T03:19:00;9.30;99.90
28969;DHT22;16076;51.194;6.642;2022-11-25T03:21:26;9.30;99.90
28969;DHT22;16076;51.194;6.642;2022-11-25T03:23:54;9.40;99.90
28969;DHT22;16076;51.194;6.642;2022-11-25T03:26:19;9.40;99.90
28969;DHT22;16076;51.194;6.642;2022-11-25T03:28:45;9.50;99.90
28969;DHT22;16076;51.194;6.642;2022-11-25T03:31:11;9.50;99.90
28969;DHT22;16076;51.194;6.642;2022-11-25T03:33:36;9.60;99.90
28969;DHT22;16076;51.194;6.642;2022-11-25T03:36:02;9.60;99.90
28969;DHT22;16076;51.194;6.642;2022-11-25T03:38:28;9.60;99.90
28969;DHT22;16076;51.194;6.642;2022-11-25T03:40:53;9.70;99.90
28969;DHT22;16076;51.194;6.642;2022-11-25T03:43:19;9.70;99.90
28969;DHT22;16076;51.194;6.642;2022-11-25T03:45:47;9.70;99.90
28969;DHT22;16076;51.194;6.642;2022-11-25T03:48:14;9.80;99.90
28969;DHT22;16076;51.194;6.642;2022-11-25T03:50:40;9.70;99.90
28969;DHT22;16076;51.194;6.642;2022-11-25T03:53:07;9.60;99.90
28969;DHT22;16076;51.194;6.642;2022-11-25T03:55:33;9.70;99.90
28969;DHT22;16076;51.194;6.642;2022-11-25T03:57:58;9.70;99.90
28969;DHT22;16076;51.194;6.642;2022-11-25T04:00:24;9.70;99.90
28969;DHT22;16076;51.194;6.642;2022-11-25T04:02:50;9.70;99.90
28969;DHT22;16076;51.194;6.642;2022-11-25T04:05:18;9.60;99.90
28969;DHT22;16076;51.194;6.642;2022-11-25T04:07:43;9.70;99.90
28969;DHT22;16076;51.194;6.642;2022-11-25T04:10:09;9.80;99.90
28969;DHT22;16076;51.194;6.642;2022-11-25T04:12:35;9.70;99.90
28969;DHT22;16076;51.194;6.642;2022-11-25T04:15:14;9.80;99.90
28969;DHT22;16076;51.194;6.642;2022-11-25T04:17:40;9.70;99.90
28969;DHT22;16076;51.194;6.642;2022-11-25T04:20:06;9.70;99.90
28969;DHT22;16076;51.194;6.642;2022-11-25T04:22:32;9.70;99.90
28969;DHT22;16076;51.194;6.642;2022-11-25T04:24:58;9.80;99.90
28969;DHT22;16076;51.194;6.642;2022-11-25T04:27:23;9.80;99.90
28969;DHT22;16076;51.194;6.642;2022-11-25T04:29:49;9.70;99.90
28969;DHT22;16076;51.194;6.642;2022-11-25T04:32:15;9.70;99.90
28969;DHT22;16076;51.194;6.642;2022-11-25T04:34:41;9.60;99.90
28969;DHT22;16076;51.194;6.642;2022-11-25T04:37:06;9.70;99.90
28969;DHT22;16076;51.194;6.642;2022-11-25T04:39:34;9.70;99.90
28969;DHT22;16076;51.194;6.642;2022-11-25T04:42:02;9.80;99.90
28969;DHT22;16076;51.194;6.642;2022-11-25T04:44:46;9.80;99.90
28969;DHT22;16076;51.194;6.642;2022-11-25T04:47:12;9.80;99.90
28969;DHT22;16076;51.194;6.642;2022-11-25T04:49:40;9.90;99.90
28969;DHT22;16076;51.194;6.642;2022-11-25T04:52:08;10.00;99.90
28969;DHT22;16076;51.194;6.642;2022-11-25T04:54:35;10.00;99.90
28969;DHT22;16076;51.194;6.642;2022-11-25T04:57:01;10.00;99.90
28969;DHT22;16076;51.194;6.642;2022-11-25T04:59:26;10.10;99.90
28969;DHT22;16076;51.194;6.642;2022-11-25T05:02:21;10.10;99.90
28969;DHT22;16076;51.194;6.642;2022-11-25T05:04:48;10.10;99.90
28969;DHT22;16076;51.194;6.642;2022-11-25T05:07:16;10.10;99.90
28969;DHT22;16076;51.194;6.642;2022-11-25T05:09:42;10.10;99.90
28969;DHT22;16076;51.194;6.642;2022-11-25T05:12:14;10.10;99.90
28969;DHT22;16076;51.194;6.642;2022-11-25T05:14:40;10.10;99.90
28969;DHT22;16076;51.194;6.642;2022-11-25T05:17:06;10.10;99.90
28969;DHT22;16076;51.194;6.642;2022-11-25T05:19:34;10.10;99.90
28969;DHT22;16076;51.194;6.642;2022-11-25T05:22:02;10.20;99.90
28969;DHT22;16076;51.194;6.642;2022-11-25T05:24:28;10.20;99.90
28969;DHT22;16076;51.194;6.642;2022-11-25T05:26:53;10.20;99.90
28969;DHT22;16076;51.194;6.642;2022-11-25T05:29:19;10.10;99.90
28969;DHT22;16076;51.194;6.642;2022-11-25T05:31:45;10.00;99.90
28969;DHT22;16076;51.194;6.642;2022-11-25T05:34:10;10.10;99.90
28969;DHT22;16076;51.194;6.642;2022-11-25T05:36:38;10.20;99.90
28969;DHT22;16076;51.194;6.642;2022-11-25T05:39:04;10.00;99.90
28969;DHT22;16076;51.194;6.642;2022-11-25T05:41:29;9.90;99.90
28969;DHT22;16076;51.194;6.642;2022-11-25T05:43:55;9.90;99.90
28969;DHT22;16076;51.194;6.642;2022-11-25T05:46:21;10.00;99.90
28969;DHT22;16076;51.194;6.642;2022-11-25T05:48:47;10.00;99.90
28969;DHT22;16076;51.194;6.642;2022-11-25T05:51:13;10.10;99.90
28969;DHT22;16076;51.194;6.642;2022-11-25T05:53:38;10.20;99.90
28969;DHT22;16076;51.194;6.642;2022-11-25T05:56:05;10.10;99.90
28969;DHT22;16076;51.194;6.642;2022-11-25T05:58:34;10.10;99.90
28969;DHT22;16076;51.194;6.642;2022-11-25T06:00:59;10.10;99.90
28969;DHT22;16076;51.194;6.642;2022-11-25T06:03:25;10.10;99.90
28969;DHT22;16076;51.194;6.642;2022-11-25T06:05:58;10.10;99.90
28969;DHT22;16076;51.194;6.642;2022-11-25T06:08:27;10.10;99.90
28969;DHT22;16076;51.194;6.642;2022-11-25T06:10:55;10.00;99.90
28969;DHT22;16076;51.194;6.642;2022-11-25T06:13:21;10.00;99.90
28969;DHT22;16076;51.194;6.642;2022-11-25T06:15:46;9.90;99.90
28969;DHT22;16076;51.194;6.642;2022-11-25T06:18:15;9.90;99.90
28969;DHT22;16076;51.194;6.642;2022-11-25T06:20:43;9.80;99.90
28969;DHT22;16076;51.194;6.642;2022-11-25T06:23:09;9.80;99.90
28969;DHT22;16076;51.194;6.642;2022-11-25T06:25:35;9.80;99.90
28969;DHT22;16076;51.194;6.642;2022-11-25T06:28:01;9.90;99.90
28969;DHT22;16076;51.194;6.642;2022-11-25T06:30:28;10.00;99.90
28969;DHT22;16076;51.194;6.642;2022-11-25T06:32:54;9.90;99.90
28969;DHT22;16076;51.194;6.642;2022-11-25T06:35:20;9.90;99.90
28969;DHT22;16076;51.194;6.642;2022-11-25T06:37:46;9.80;99.90
28969;DHT22;16076;51.194;6.642;2022-11-25T06:40:13;9.80;99.90
28969;DHT22;16076;51.194;6.642;2022-11-25T06:42:39;9.70;99.90
28969;DHT22;16076;51.194;6.642;2022-11-25T06:45:08;9.80;99.90
28969;DHT22;16076;51.194;6.642;2022-11-25T06:47:33;9.70;99.90
28969;DHT22;16076;51.194;6.642;2022-11-25T06:49:59;9.60;99.90
28969;DHT22;16076;51.194;6.642;2022-11-25T06:52:24;9.50;99.90
28969;DHT22;16076;51.194;6.642;2022-11-25T06:54:50;9.40;99.90
28969;DHT22;16076;51.194;6.642;2022-11-25T06:57:17;9.30;99.90
28969;DHT22;16076;51.194;6.642;2022-11-25T06:59:43;9.20;99.90
28969;DHT22;16076;51.194;6.642;2022-11-25T07:02:11;9.00;99.90
28969;DHT22;16076;51.194;6.642;2022-11-25T07:04:37;8.90;99.90
28969;DHT22;16076;51.194;6.642;2022-11-25T07:07:02;8.80;99.90
28969;DHT22;16076;51.194;6.642;2022-11-25T07:09:28;8.70;99.90
28969;DHT22;16076;51.194;6.642;2022-11-25T07:11:54;8.60;99.90
28969;DHT22;16076;51.194;6.642;2022-11-25T07:14:22;8.50;99.90
28969;DHT22;16076;51.194;6.642;2022-11-25T07:16:50;8.40;99.90
28969;DHT22;16076;51.194;6.642;2022-11-25T07:19:17;8.30;99.90
28969;DHT22;16076;51.194;6.642;2022-11-25T07:21:44;8.30;99.90
28969;DHT22;16076;51.194;6.642;2022-11-25T07:24:12;8.20;99.90
28969;DHT22;16076;51.194;6.642;2022-11-25T07:26:40;8.30;99.90
28969;DHT22;16076;51.194;6.642;2022-11-25T07:29:08;8.20;99.90
28969;DHT22;16076;51.194;6.642;2022-11-25T07:31:37;8.10;99.90
28969;DHT22;16076;51.194;6.642;2022-11-25T07:34:06;8.00;99.90
28969;DHT22;16076;51.194;6.642;2022-11-25T07:36:35;8.00;99.90
28969;DHT22;16076;51.194;6.642;2022-11-25T07:39:03;8.00;99.90
28969;DHT22;16076;51.194;6.642;2022-11-25T07:41:30;8.00;99.90
28969;DHT22;16076;51.194;6.642;2022-11-25T07:43:58;7.90;99.90
28969;DHT22;16076;51.194;6.642;2022-11-25T07:46:26;8.00;99.90
28969;DHT22;16076;51.194;6.642;2022-11-25T07:48:53;8.00;99.90
28969;DHT22;16076;51.194;6.642;2022-11-25T07:51:30;8.10;99.90
28969;DHT22;16076;51.194;6.642;2022-11-25T07:53:57;8.10;99.90
28969;DHT22;16076;51.194;6.642;2022-11-25T07:56:23;8.10;99.90
28969;DHT22;16076;51.194;6.642;2022-11-25T07:58:51;8.20;99.90
28969;DHT22;16076;51.194;6.642;2022-11-25T08:01:18;8.20;99.90
28969;DHT22;16076;51.194;6.642;2022-11-25T08:03:45;8.30;99.90
28969;DHT22;16076;51.194;6.642;2022-11-25T08:06:14;8.30;99.90
28969;DHT22;16076;51.194;6.642;2022-11-25T08:08:40;8.30;99.90
28969;DHT22;16076;51.194;6.642;2022-11-25T08:11:08;8.50;99.90
28969;DHT22;16076;51.194;6.642;2022-11-25T08:13:35;8.40;99.90
28969;DHT22;16076;51.194;6.642;2022-11-25T08:16:03;8.40;99.90
28969;DHT22;16076;51.194;6.642;2022-11-25T08:18:29;8.50;99.90
28969;DHT22;16076;51.194;6.642;2022-11-25T08:21:03;8.60;99.90
28969;DHT22;16076;51.194;6.642;2022-11-25T08:23:29;8.70;99.90
28969;DHT22;16076;51.194;6.642;2022-11-25T08:25:55;8.80;99.90
28969;DHT22;16076;51.194;6.642;2022-11-25T08:28:21;8.80;99.90
28969;DHT22;16076;51.194;6.642;2022-11-25T08:30:47;8.80;99.90
28969;DHT22;16076;51.194;6.642;2022-11-25T08:33:12;8.80;99.90
28969;DHT22;16076;51.194;6.642;2022-11-25T08:35:38;8.90;99.90
28969;DHT22;16076;51.194;6.642;2022-11-25T08:38:05;8.90;99.90
28969;DHT22;16076;51.194;6.642;2022-11-25T08:40:32;9.00;99.90
28969;DHT22;16076;51.194;6.642;2022-11-25T08:42:58;9.00;99.90
28969;DHT22;16076;51.194;6.642;2022-11-25T08:45:23;9.00;99.90
28969;DHT22;16076;51.194;6.642;2022-11-25T08:47:49;9.10;99.90
28969;DHT22;16076;51.194;6.642;2022-11-25T08:50:15;9.10;99.90
28969;DHT22;16076;51.194;6.642;2022-11-25T08:52:41;9.30;99.90
28969;DHT22;16076;51.194;6.642;2022-11-25T08:55:09;9.30;99.90
28969;DHT22;16076;51.194;6.642;2022-11-25T08:57:35;9.40;99.90
28969;DHT22;16076;51.194;6.642;2022-11-25T09:00:01;9.50;99.90
28969;DHT22;16076;51.194;6.642;2022-11-25T09:02:29;9.60;99.90
28969;DHT22;16076;51.194;6.642;2022-11-25T09:04:54;9.60;99.90
28969;DHT22;16076;51.194;6.642;2022-11-25T09:07:20;9.80;99.90
28969;DHT22;16076;51.194;6.642;2022-11-25T09:09:46;9.80;99.90
28969;DHT22;16076;51.194;6.642;2022-11-25T09:12:11;9.90;99.90
28969;DHT22;16076;51.194;6.642;2022-11-25T09:14:37;10.00;99.90
28969;DHT22;16076;51.194;6.642;2022-11-25T09:17:08;10.10;99.90
28969;DHT22;16076;51.194;6.642;2022-11-25T09:19:34;10.20;99.90
28969;DHT22;16076;51.194;6.642;2022-11-25T09:22:00;10.30;99.90
28969;DHT22;16076;51.194;6.642;2022-11-25T09:24:25;10.40;99.90
28969;DHT22;16076;51.194;6.642;2022-11-25T09:26:51;10.60;99.90
28969;DHT22;16076;51.194;6.642;2022-11-25T09:29:16;10.60;99.90
28969;DHT22;16076;51.194;6.642;2022-11-25T09:31:42;10.70;99.90
28969;DHT22;16076;51.194;6.642;2022-11-25T09:34:07;10.70;99.90
28969;DHT22;16076;51.194;6.642;2022-11-25T09:36:34;10.80;99.90
28969;DHT22;16076;51.194;6.642;2022-11-25T09:39:00;10.80;99.90
28969;DHT22;16076;51.194;6.642;2022-11-25T09:41:53;11.00;99.90
28969;DHT22;16076;51.194;6.642;2022-11-25T09:45:03;10.90;99.90
28969;DHT22;16076;51.194;6.642;2022-11-25T09:47:59;11.00;99.90
28969;DHT22;16076;51.194;6.642;2022-11-25T09:53:42;11.10;99.90
28969;DHT22;16076;51.194;6.642;2022-11-25T09:59:19;11.20;99.90
28969;DHT22;16076;51.194;6.642;2022-11-25T10:02:01;11.20;99.90
28969;DHT22;16076;51.194;6.642;2022-11-25T10:07:44;11.20;99.90
28969;DHT22;16076;51.194;6.642;2022-11-25T10:10:23;11.20;99.90
28969;DHT22;16076;51.194;6.642;2022-11-25T10:12:52;11.30;99.90
28969;DHT22;16076;51.194;6.642;2022-11-25T10:15:35;11.30;99.90
28969;DHT22;16076;51.194;6.642;2022-11-25T10:18:38;11.30;99.90
28969;DHT22;16076;51.194;6.642;2022-11-25T10:21:04;11.30;99.90
28969;DHT22;16076;51.194;6.642;2022-11-25T10:23:33;11.30;99.90
28969;DHT22;16076;51.194;6.642;2022-11-25T10:26:14;11.30;99.90
28969;DHT22;16076;51.194;6.642;2022-11-25T10:28:50;11.40;99.90
28969;DHT22;16076;51.194;6.642;2022-11-25T10:31:36;11.40;99.90
28969;DHT22;16076;51.194;6.642;2022-11-25T10:34:19;11.50;99.90
28969;DHT22;16076;51.194;6.642;2022-11-25T10:36:49;11.60;99.90
28969;DHT22;16076;51.194;6.642;2022-11-25T10:39:24;11.60;99.90
28969;DHT22;16076;51.194;6.642;2022-11-25T10:42:02;11.70;99.90
28969;DHT22;16076;51.194;6.642;2022-11-25T10:44:34;11.70;99.90
28969;DHT22;16076;51.194;6.642;2022-11-25T10:53:05;12.20;99.90
28969;DHT22;16076;51.194;6.642;2022-11-25T10:55:34;12.40;99.90
28969;DHT22;16076;51.194;6.642;2022-11-25T10:58:35;12.40;99.90
28969;DHT22;16076;51.194;6.642;2022-11-25T11:03:34;12.40;99.90
28969;DHT22;16076;51.194;6.642;2022-11-25T11:06:00;12.40;99.90
28969;DHT22;16076;51.194;6.642;2022-11-25T11:08:46;12.40;99.90
28969;DHT22;16076;51.194;6.642;2022-11-25T11:11:19;12.60;99.90
28969;DHT22;16076;51.194;6.642;2022-11-25T11:13:48;12.60;99.90
28969;DHT22;16076;51.194;6.642;2022-11-25T11:16:39;12.60;99.90
28969;DHT22;16076;51.194;6.642;2022-11-25T11:19:20;12.70;99.90
28969;DHT22;16076;51.194;6.642;2022-11-25T11:21:45;12.60;99.90
28969;DHT22;16076;51.194;6.642;2022-11-25T11:24:41;12.50;99.90
28969;DHT22;16076;51.194;6.642;2022-11-25T11:27:20;12.30;99.90
28969;DHT22;16076;51.194;6.642;2022-11-25T11:29:46;12.30;99.90
28969;DHT22;16076;51.194;6.642;2022-11-25T11:32:27;12.40;99.90
28969;DHT22;16076;51.194;6.642;2022-11-25T11:35:05;12.50;99.90
28969;DHT22;16076;51.194;6.642;2022-11-25T11:37:50;12.70;99.90
28969;DHT22;16076;51.194;6.642;2022-11-25T11:40:39;12.70;99.90
28969;DHT22;16076;51.194;6.642;2022-11-25T11:52:23;12.50;99.90
28969;DHT22;16076;51.194;6.642;2022-11-25T11:55:00;12.50;99.90
28969;DHT22;16076;51.194;6.642;2022-11-25T11:57:43;12.40;99.90
28969;DHT22;16076;51.194;6.642;2022-11-25T12:00:12;12.40;99.90
28969;DHT22;16076;51.194;6.642;2022-11-25T12:05:19;12.40;99.90
28969;DHT22;16076;51.194;6.642;2022-11-25T12:10:32;12.30;99.90
28969;DHT22;16076;51.194;6.642;2022-11-25T12:13:20;12.20;99.90
28969;DHT22;16076;51.194;6.642;2022-11-25T12:18:46;12.20;99.90
28969;DHT22;16076;51.194;6.642;2022-11-25T12:26:56;12.50;99.90
28969;DHT22;16076;51.194;6.642;2022-11-25T12:29:34;12.50;99.90
28969;DHT22;16076;51.194;6.642;2022-11-25T12:34:57;12.50;99.90
28969;DHT22;16076;51.194;6.642;2022-11-25T12:40:15;12.80;99.90
28969;DHT22;16076;51.194;6.642;2022-11-25T12:42:44;12.90;99.90
28969;DHT22;16076;51.194;6.642;2022-11-25T12:45:23;12.90;99.90
28969;DHT22;16076;51.194;6.642;2022-11-25T12:47:50;12.70;99.90
28969;DHT22;16076;51.194;6.642;2022-11-25T12:50:41;12.50;99.90
28969;DHT22;16076;51.194;6.642;2022-11-25T12:53:25;12.40;99.90
28969;DHT22;16076;51.194;6.642;2022-11-25T12:55:57;12.30;99.90
28969;DHT22;16076;51.194;6.642;2022-11-25T13:04:49;12.20;99.90
28969;DHT22;16076;51.194;6.642;2022-11-25T13:13:36;12.40;99.90
28969;DHT22;16076;51.194;6.642;2022-11-25T13:16:07;12.50;99.90
28969;DHT22;16076;51.194;6.642;2022-11-25T13:18:38;12.50;99.90
28969;DHT22;16076;51.194;6.642;2022-11-25T13:21:14;12.40;99.90
28969;DHT22;16076;51.194;6.642;2022-11-25T13:23:51;12.50;99.90
28969;DHT22;16076;51.194;6.642;2022-11-25T13:32:22;12.60;99.90
28969;DHT22;16076;51.194;6.642;2022-11-25T13:34:49;12.60;99.90
28969;DHT22;16076;51.194;6.642;2022-11-25T13:37:35;12.50;99.90
28969;DHT22;16076;51.194;6.642;2022-11-25T13:42:51;12.40;99.90
28969;DHT22;16076;51.194;6.642;2022-11-25T13:45:33;12.40;99.90
28969;DHT22;16076;51.194;6.642;2022-11-25T13:48:06;12.30;99.90
28969;DHT22;16076;51.194;6.642;2022-11-25T13:50:39;12.30;99.90
28969;DHT22;16076;51.194;6.642;2022-11-25T13:53:17;12.30;99.90
28969;DHT22;16076;51.194;6.642;2022-11-25T13:55:44;12.20;99.90
28969;DHT22;16076;51.194;6.642;2022-11-25T13:58:22;12.20;99.90
28969;DHT22;16076;51.194;6.642;2022-11-25T14:01:02;12.10;99.90
28969;DHT22;16076;51.194;6.642;2022-11-25T14:08:52;12.10;99.90
28969;DHT22;16076;51.194;6.642;2022-11-25T14:11:34;12.00;99.90
28969;DHT22;16076;51.194;6.642;2022-11-25T14:24:52;12.10;99.90
28969;DHT22;16076;51.194;6.642;2022-11-25T14:27:28;12.20;99.90
28969;DHT22;16076;51.194;6.642;2022-11-25T14:30:03;12.30;99.90
28969;DHT22;16076;51.194;6.642;2022-11-25T14:35:27;12.50;99.90
28969;DHT22;16076;51.194;6.642;2022-11-25T14:38:08;12.60;99.90
28969;DHT22;16076;51.194;6.642;2022-11-25T14:40:52;12.70;99.90
28969;DHT22;16076;51.194;6.642;2022-11-25T14:43:22;12.70;99.90
28969;DHT22;16076;51.194;6.642;2022-11-25T14:46:20;12.70;99.90
28969;DHT22;16076;51.194;6.642;2022-11-25T14:48:54;12.70;99.90
28969;DHT22;16076;51.194;6.642;2022-11-25T14:51:20;12.60;99.90
28969;DHT22;16076;51.194;6.642;2022-11-25T14:53:48;12.50;99.90
28969;DHT22;16076;51.194;6.642;2022-11-25T14:56:28;12.40;99.90
28969;DHT22;16076;51.194;6.642;2022-11-25T14:58:57;12.40;99.90
28969;DHT22;16076;51.194;6.642;2022-11-25T15:01:30;12.20;99.90
28969;DHT22;16076;51.194;6.642;2022-11-25T15:04:19;12.10;99.90
28969;DHT22;16076;51.194;6.642;2022-11-25T15:06:54;12.00;99.90
28969;DHT22;16076;51.194;6.642;2022-11-25T15:09:30;11.90;99.90
28969;DHT22;16076;51.194;6.642;2022-11-25T15:12:02;11.80;99.90
28969;DHT22;16076;51.194;6.642;2022-11-25T15:14:37;11.70;99.90
28969;DHT22;16076;51.194;6.642;2022-11-25T15:19:52;11.50;99.90
28969;DHT22;16076;51.194;6.642;2022-11-25T15:22:20;11.40;99.90
28969;DHT22;16076;51.194;6.642;2022-11-25T15:24:47;11.20;99.90
28969;DHT22;16076;51.194;6.642;2022-11-25T15:27:18;11.10;99.90
28969;DHT22;16076;51.194;6.642;2022-11-25T15:29:45;11.10;99.90
28969;DHT22;16076;51.194;6.642;2022-11-25T15:34:42;10.90;99.90
28969;DHT22;16076;51.194;6.642;2022-11-25T15:37:11;10.90;99.90
28969;DHT22;16076;51.194;6.642;2022-11-25T15:39:37;10.90;99.90
28969;DHT22;16076;51.194;6.642;2022-11-25T15:42:17;11.00;99.90
28969;DHT22;16076;51.194;6.642;2022-11-25T15:44:49;11.10;99.90
28969;DHT22;16076;51.194;6.642;2022-11-25T15:47:23;11.20;99.90
28969;DHT22;16076;51.194;6.642;2022-11-25T15:50:16;11.30;99.90
28969;DHT22;16076;51.194;6.642;2022-11-25T15:52:46;11.30;99.90
28969;DHT22;16076;51.194;6.642;2022-11-25T15:55:36;11.40;99.90
28969;DHT22;16076;51.194;6.642;2022-11-25T15:58:06;11.50;99.90
28969;DHT22;16076;51.194;6.642;2022-11-25T16:00:33;11.50;99.90
28969;DHT22;16076;51.194;6.642;2022-11-25T16:03:01;11.50;99.90
28969;DHT22;16076;51.194;6.642;2022-11-25T16:05:34;11.60;99.90
28969;DHT22;16076;51.194;6.642;2022-11-25T16:08:01;11.60;99.90
28969;DHT22;16076;51.194;6.642;2022-11-25T16:10:31;11.70;99.90
28969;DHT22;16076;51.194;6.642;2022-11-25T16:13:26;11.70;99.90
28969;DHT22;16076;51.194;6.642;2022-11-25T16:21:19;11.80;99.90
28969;DHT22;16076;51.194;6.642;2022-11-25T16:23:48;11.80;99.90
28969;DHT22;16076;51.194;6.642;2022-11-25T16:26:19;11.80;99.90
28969;DHT22;16076;51.194;6.642;2022-11-25T16:28:54;11.80;99.90
28969;DHT22;16076;51.194;6.642;2022-11-25T16:31:21;11.80;99.90
28969;DHT22;16076;51.194;6.642;2022-11-25T16:33:47;11.80;99.90
28969;DHT22;16076;51.194;6.642;2022-11-25T16:36:15;11.70;99.90
28969;DHT22;16076;51.194;6.642;2022-11-25T16:38:46;11.70;99.90
28969;DHT22;16076;51.194;6.642;2022-11-25T16:41:22;11.60;99.90
28969;DHT22;16076;51.194;6.642;2022-11-25T16:43:49;11.50;99.90
28969;DHT22;16076;51.194;6.642;2022-11-25T16:46:17;11.50;99.90
28969;DHT22;16076;51.194;6.642;2022-11-25T16:48:43;11.50;99.90
28969;DHT22;16076;51.194;6.642;2022-11-25T16:51:22;11.50;99.90
28969;DHT22;16076;51.194;6.642;2022-11-25T16:53:49;11.40;99.90
28969;DHT22;16076;51.194;6.642;2022-11-25T16:56:18;11.40;99.90
28969;DHT22;16076;51.194;6.642;2022-11-25T16:58:46;11.30;99.90
28969;DHT22;16076;51.194;6.642;2022-11-25T17:01:16;11.30;99.90
28969;DHT22;16076;51.194;6.642;2022-11-25T17:03:43;11.10;99.90
28969;DHT22;16076;51.194;6.642;2022-11-25T17:06:35;11.00;99.90
28969;DHT22;16076;51.194;6.642;2022-11-25T17:09:04;10.80;99.90
28969;DHT22;16076;51.194;6.642;2022-11-25T17:14:41;10.70;99.90
28969;DHT22;16076;51.194;6.642;2022-11-25T17:17:09;10.70;99.90
28969;DHT22;16076;51.194;6.642;2022-11-25T17:19:36;10.70;99.90
28969;DHT22;16076;51.194;6.642;2022-11-25T17:22:02;10.70;99.90
28969;DHT22;16076;51.194;6.642;2022-11-25T17:24:28;10.80;99.90
28969;DHT22;16076;51.194;6.642;2022-11-25T17:27:03;10.70;99.90
28969;DHT22;16076;51.194;6.642;2022-11-25T17:29:33;10.70;99.90
28969;DHT22;16076;51.194;6.642;2022-11-25T17:32:00;10.70;99.90
28969;DHT22;16076;51.194;6.642;2022-11-25T17:34:26;10.80;99.90
28969;DHT22;16076;51.194;6.642;2022-11-25T17:36:51;10.90;99.90
28969;DHT22;16076;51.194;6.642;2022-11-25T17:39:19;10.80;99.90
28969;DHT22;16076;51.194;6.642;2022-11-25T17:41:48;10.80;99.90
28969;DHT22;16076;51.194;6.642;2022-11-25T17:44:21;10.80;99.90